sensor_id;sensor_type;location;lat;lon;timestamp;temperature;humidity
8824;DHT22;4448;50.904;4.694;2024-02-04T00:02:25;11.10;99.90
8824;DHT22;4448;50.904;4.694;2024-02-04T00:04:51;11.10;99.90
8824;DHT22;4448;50.904;4.694;2024-02-04T00:07:17;11.10;99.90
8824;DHT22;4448;50.904;4.694;2024-02-04T00:09:43;11.10;99.90
8824;DHT22;4448;50.904;4.694;2024-02-04T00:12:11;11.10;99.90
8824;DHT22;4448;50.904;4.694;2024-02-04T00:14:37;11.10;99.90
8824;DHT22;4448;50.904;4.694;2024-02-04T00:17:03;11.10;99.90
8824;DHT22;4448;50.904;4.694;2024-02-04T00:19:29;11.10;99.90
8824;DHT22;4448;50.904;4.694;2024-02-04T00:21:55;11.10;99.90
8824;DHT22;4448;50.904;4.694;2024-02-04T00:24:21;11.10;99.90
8824;DHT22;4448;50.904;4.694;2024-02-04T00:26:47;11.10;99.90
8824;DHT22;4448;50.904;4.694;2024-02-04T00:29:13;11.10;99.90
8824;DHT22;4448;50.904;4.694;2024-02-04T00:31:39;11.10;99.90
8824;DHT22;4448;50.904;4.694;2024-02-04T00:34:05;11.10;99.90
8824;DHT22;4448;50.904;4.694;2024-02-04T00:36:31;11.10;99.90
8824;DHT22;4448;50.904;4.694;2024-02-04T00:38:56;11.10;99.90
8824;DHT22;4448;50.904;4.694;2024-02-04T00:41:22;11.10;99.90
8824;DHT22;4448;50.904;4.694;2024-02-04T00:43:48;11.10;99.90
8824;DHT22;4448;50.904;4.694;2024-02-04T00:46:14;11.10;99.90
8824;DHT22;4448;50.904;4.694;2024-02-04T00:48:39;11.10;99.90
8824;DHT22;4448;50.904;4.694;2024-02-04T00:51:08;11.10;99.90
8824;DHT22;4448;50.904;4.694;2024-02-04T00:53:34;11.10;99.90
8824;DHT22;4448;50.904;4.694;2024-02-04T00:56:03;11.10;99.90
8824;DHT22;4448;50.904;4.694;2024-02-04T00:58:30;11.10;99.90
8824;DHT22;4448;50.904;4.694;2024-02-04T01:00:55;11.10;99.90
8824;DHT22;4448;50.904;4.694;2024-02-04T01:03:21;11.10;99.90
8824;DHT22;4448;50.904;4.694;2024-02-04T01:05:47;11.10;99.90
8824;DHT22;4448;50.904;4.694;2024-02-04T01:08:13;11.10;99.90
8824;DHT22;4448;50.904;4.694;2024-02-04T01:10:39;11.10;99.90
8824;DHT22;4448;50.904;4.694;2024-02-04T01:13:05;11.10;99.90
8824;DHT22;4448;50.904;4.694;2024-02-04T01:15:30;11.10;99.90
8824;DHT22;4448;50.904;4.694;2024-02-04T01:17:56;11.10;99.90
8824;DHT22;4448;50.904;4.694;2024-02-04T01:20:22;11.10;99.90
8824;DHT22;4448;50.904;4.694;2024-02-04T01:22:48;11.10;99.90
8824;DHT22;4448;50.904;4.694;2024-02-04T01:25:14;11.10;99.90
8824;DHT22;4448;50.904;4.694;2024-02-04T01:27:39;11.10;99.90
8824;DHT22;4448;50.904;4.694;2024-02-04T01:30:06;11.10;99.90
8824;DHT22;4448;50.904;4.694;2024-02-04T01:32:32;11.10;99.90
8824;DHT22;4448;50.904;4.694;2024-02-04T01:34:57;11.10;99.90
8824;DHT22;4448;50.904;4.694;2024-02-04T01:37:23;11.10;99.90
8824;DHT22;4448;50.904;4.694;2024-02-04T01:39:49;11.10;99.90
8824;DHT22;4448;50.904;4.694;2024-02-04T01:42:15;11.10;99.90
8824;DHT22;4448;50.904;4.694;2024-02-04T01:44:41;11.10;99.90
8824;DHT22;4448;50.904;4.694;2024-02-04T01:47:07;11.10;99.90
8824;DHT22;4448;50.904;4.694;2024-02-04T01:49:33;11.10;99.90
8824;DHT22;4448;50.904;4.694;2024-02-04T01:52:00;11.10;99.90
8824;DHT22;4448;50.904;4.694;2024-02-04T01:54:27;11.10;99.90
8824;DHT22;4448;50.904;4.694;2024-02-04T01:56:53;11.10;99.90
8824;DHT22;4448;50.904;4.694;2024-02-04T01:59:22;11.20;99.90
8824;DHT22;4448;50.904;4.694;2024-02-04T02:01:53;11.20;99.90
8824;DHT22;4448;50.904;4.694;2024-02-04T02:04:20;11.10;99.90
8824;DHT22;4448;50.904;4.694;2024-02-04T02:06:46;11.10;99.90
8824;DHT22;4448;50.904;4.694;2024-02-04T02:09:12;11.10;99.90
8824;DHT22;4448;50.904;4.694;2024-02-04T02:11:44;11.10;99.90
8824;DHT22;4448;50.904;4.694;2024-02-04T02:14:16;11.20;99.90
8824;DHT22;4448;50.904;4.694;2024-02-04T02:16:44;11.10;99.90
8824;DHT22;4448;50.904;4.694;2024-02-04T02:24:49;11.20;99.90
8824;DHT22;4448;50.904;4.694;2024-02-04T02:27:16;11.20;99.90
8824;DHT22;4448;50.904;4.694;2024-02-04T02:29:42;11.10;99.90
8824;DHT22;4448;50.904;4.694;2024-02-04T02:32:08;11.10;99.90
8824;DHT22;4448;50.904;4.694;2024-02-04T02:34:34;11.10;99.90
8824;DHT22;4448;50.904;4.694;2024-02-04T02:40:06;11.10;99.90
8824;DHT22;4448;50.904;4.694;2024-02-04T02:42:34;11.20;99.90
8824;DHT22;4448;50.904;4.694;2024-02-04T02:45:01;11.10;99.90
8824;DHT22;4448;50.904;4.694;2024-02-04T02:47:29;11.20;99.90
8824;DHT22;4448;50.904;4.694;2024-02-04T02:49:55;11.20;99.90
8824;DHT22;4448;50.904;4.694;2024-02-04T02:52:21;11.20;99.90
8824;DHT22;4448;50.904;4.694;2024-02-04T02:54:47;11.20;99.90
8824;DHT22;4448;50.904;4.694;2024-02-04T02:57:13;11.20;99.90
8824;DHT22;4448;50.904;4.694;2024-02-04T02:59:39;11.20;99.90
8824;DHT22;4448;50.904;4.694;2024-02-04T03:02:05;11.20;99.90
8824;DHT22;4448;50.904;4.694;2024-02-04T03:04:31;11.20;99.90
8824;DHT22;4448;50.904;4.694;2024-02-04T03:06:56;11.20;99.90
8824;DHT22;4448;50.904;4.694;2024-02-04T03:09:22;11.20;99.90
8824;DHT22;4448;50.904;4.694;2024-02-04T03:11:48;11.20;99.90
8824;DHT22;4448;50.904;4.694;2024-02-04T03:14:17;11.20;99.90
8824;DHT22;4448;50.904;4.694;2024-02-04T03:16:44;11.20;99.90
8824;DHT22;4448;50.904;4.694;2024-02-04T03:19:10;11.20;99.90
8824;DHT22;4448;50.904;4.694;2024-02-04T03:21:36;11.20;99.90
8824;DHT22;4448;50.904;4.694;2024-02-04T03:24:02;11.20;99.90
8824;DHT22;4448;50.904;4.694;2024-02-04T03:26:28;11.20;99.90
8824;DHT22;4448;50.904;4.694;2024-02-04T03:28:54;11.20;99.90
8824;DHT22;4448;50.904;4.694;2024-02-04T03:31:23;11.20;99.90
8824;DHT22;4448;50.904;4.694;2024-02-04T03:33:49;11.20;99.90
8824;DHT22;4448;50.904;4.694;2024-02-04T03:36:24;11.20;99.90
8824;DHT22;4448;50.904;4.694;2024-02-04T03:38:51;11.20;99.90
8824;DHT22;4448;50.904;4.694;2024-02-04T03:41:17;11.20;99.90
8824;DHT22;4448;50.904;4.694;2024-02-04T03:43:43;11.20;99.90
8824;DHT22;4448;50.904;4.694;2024-02-04T03:46:16;11.20;99.90
8824;DHT22;4448;50.904;4.694;2024-02-04T03:48:43;11.20;99.90
8824;DHT22;4448;50.904;4.694;2024-02-04T03:51:14;11.20;99.90
8824;DHT22;4448;50.904;4.694;2024-02-04T03:53:40;11.20;99.90
8824;DHT22;4448;50.904;4.694;2024-02-04T03:56:06;11.20;99.90
8824;DHT22;4448;50.904;4.694;2024-02-04T03:58:33;11.20;99.90
8824;DHT22;4448;50.904;4.694;2024-02-04T04:00:58;11.20;99.90
8824;DHT22;4448;50.904;4.694;2024-02-04T04:03:25;11.20;99.90
8824;DHT22;4448;50.904;4.694;2024-02-04T04:05:53;11.20;99.90
8824;DHT22;4448;50.904;4.694;2024-02-04T04:08:19;11.20;99.90
8824;DHT22;4448;50.904;4.694;2024-02-04T04:10:45;11.20;99.90
8824;DHT22;4448;50.904;4.694;2024-02-04T04:13:12;11.20;99.90
8824;DHT22;4448;50.904;4.694;2024-02-04T04:15:38;11.20;99.90
8824;DHT22;4448;50.904;4.694;2024-02-04T04:18:04;11.20;99.90
8824;DHT22;4448;50.904;4.694;2024-02-04T04:20:30;11.20;99.90
8824;DHT22;4448;50.904;4.694;2024-02-04T04:22:57;11.20;99.90
8824;DHT22;4448;50.904;4.694;2024-02-04T04:25:23;11.20;99.90
8824;DHT22;4448;50.904;4.694;2024-02-04T04:27:49;11.20;99.90
8824;DHT22;4448;50.904;4.694;2024-02-04T04:30:15;11.20;99.90
8824;DHT22;4448;50.904;4.694;2024-02-04T04:32:41;11.20;99.90
8824;DHT22;4448;50.904;4.694;2024-02-04T04:35:07;11.20;99.90
8824;DHT22;4448;50.904;4.694;2024-02-04T04:37:32;11.20;99.90
8824;DHT22;4448;50.904;4.694;2024-02-04T04:39:58;11.20;99.90
8824;DHT22;4448;50.904;4.694;2024-02-04T04:42:24;11.20;99.90
8824;DHT22;4448;50.904;4.694;2024-02-04T04:44:50;11.20;99.90
8824;DHT22;4448;50.904;4.694;2024-02-04T04:47:16;11.20;99.90
8824;DHT22;4448;50.904;4.694;2024-02-04T04:49:41;11.20;99.90
8824;DHT22;4448;50.904;4.694;2024-02-04T04:52:07;11.20;99.90
8824;DHT22;4448;50.904;4.694;2024-02-04T04:54:33;11.20;99.90
8824;DHT22;4448;50.904;4.694;2024-02-04T04:56:59;11.20;99.90
8824;DHT22;4448;50.904;4.694;2024-02-04T04:59:25;11.20;99.90
8824;DHT22;4448;50.904;4.694;2024-02-04T05:01:50;11.20;99.90
8824;DHT22;4448;50.904;4.694;2024-02-04T05:04:17;11.20;99.90
8824;DHT22;4448;50.904;4.694;2024-02-04T05:06:49;11.20;99.90
8824;DHT22;4448;50.904;4.694;2024-02-04T05:09:14;11.20;99.90
8824;DHT22;4448;50.904;4.694;2024-02-04T05:11:41;11.20;99.90
8824;DHT22;4448;50.904;4.694;2024-02-04T05:14:07;11.20;99.90
8824;DHT22;4448;50.904;4.694;2024-02-04T05:16:33;11.20;99.90
8824;DHT22;4448;50.904;4.694;2024-02-04T05:18:58;11.20;99.90
8824;DHT22;4448;50.904;4.694;2024-02-04T05:21:24;11.20;99.90
8824;DHT22;4448;50.904;4.694;2024-02-04T05:23:50;11.20;99.90
8824;DHT22;4448;50.904;4.694;2024-02-04T05:26:19;11.20;99.90
8824;DHT22;4448;50.904;4.694;2024-02-04T05:28:45;11.20;99.90
8824;DHT22;4448;50.904;4.694;2024-02-04T05:31:11;11.20;99.90
8824;DHT22;4448;50.904;4.694;2024-02-04T05:33:36;11.20;99.90
8824;DHT22;4448;50.904;4.694;2024-02-04T05:36:02;11.20;99.90
8824;DHT22;4448;50.904;4.694;2024-02-04T05:38:29;11.20;99.90
8824;DHT22;4448;50.904;4.694;2024-02-04T05:40:55;11.20;99.90
8824;DHT22;4448;50.904;4.694;2024-02-04T05:43:21;11.20;99.90
8824;DHT22;4448;50.904;4.694;2024-02-04T05:45:47;11.20;99.90
8824;DHT22;4448;50.904;4.694;2024-02-04T05:48:13;11.20;99.90
8824;DHT22;4448;50.904;4.694;2024-02-04T05:50:39;11.20;99.90
8824;DHT22;4448;50.904;4.694;2024-02-04T05:53:05;11.20;99.90
8824;DHT22;4448;50.904;4.694;2024-02-04T05:55:31;11.20;99.90
8824;DHT22;4448;50.904;4.694;2024-02-04T05:57:57;11.20;99.90
8824;DHT22;4448;50.904;4.694;2024-02-04T06:00:23;11.20;99.90
8824;DHT22;4448;50.904;4.694;2024-02-04T06:02:49;11.20;99.90
8824;DHT22;4448;50.904;4.694;2024-02-04T06:05:15;11.20;99.90
8824;DHT22;4448;50.904;4.694;2024-02-04T06:07:43;11.20;99.90
8824;DHT22;4448;50.904;4.694;2024-02-04T06:10:09;11.20;99.90
8824;DHT22;4448;50.904;4.694;2024-02-04T06:12:35;11.20;99.90
8824;DHT22;4448;50.904;4.694;2024-02-04T06:15:01;11.20;99.90
8824;DHT22;4448;50.904;4.694;2024-02-04T06:17:27;11.20;99.90
8824;DHT22;4448;50.904;4.694;2024-02-04T06:19:52;11.20;99.90
8824;DHT22;4448;50.904;4.694;2024-02-04T06:22:19;11.20;99.90
8824;DHT22;4448;50.904;4.694;2024-02-04T06:24:45;11.20;99.90
8824;DHT22;4448;50.904;4.694;2024-02-04T06:27:11;11.20;99.90
8824;DHT22;4448;50.904;4.694;2024-02-04T06:29:37;11.20;99.90
8824;DHT22;4448;50.904;4.694;2024-02-04T06:32:05;11.20;99.90
8824;DHT22;4448;50.904;4.694;2024-02-04T06:34:31;11.20;99.90
8824;DHT22;4448;50.904;4.694;2024-02-04T06:36:57;11.20;99.90
8824;DHT22;4448;50.904;4.694;2024-02-04T06:39:23;11.20;99.90
8824;DHT22;4448;50.904;4.694;2024-02-04T06:41:49;11.20;99.90
8824;DHT22;4448;50.904;4.694;2024-02-04T06:44:15;11.20;99.90
8824;DHT22;4448;50.904;4.694;2024-02-04T06:46:41;11.20;99.90
8824;DHT22;4448;50.904;4.694;2024-02-04T06:49:06;11.20;99.90
8824;DHT22;4448;50.904;4.694;2024-02-04T06:51:33;11.20;99.90
8824;DHT22;4448;50.904;4.694;2024-02-04T06:53:59;11.20;99.90
8824;DHT22;4448;50.904;4.694;2024-02-04T06:56:26;11.20;99.90
8824;DHT22;4448;50.904;4.694;2024-02-04T06:58:52;11.20;99.90
8824;DHT22;4448;50.904;4.694;2024-02-04T07:01:17;11.20;99.90
8824;DHT22;4448;50.904;4.694;2024-02-04T07:03:43;11.20;99.90
8824;DHT22;4448;50.904;4.694;2024-02-04T07:06:09;11.20;99.90
8824;DHT22;4448;50.904;4.694;2024-02-04T07:08:35;11.20;99.90
8824;DHT22;4448;50.904;4.694;2024-02-04T07:11:01;11.20;99.90
8824;DHT22;4448;50.904;4.694;2024-02-04T07:13:27;11.20;99.90
8824;DHT22;4448;50.904;4.694;2024-02-04T07:15:53;11.20;99.90
8824;DHT22;4448;50.904;4.694;2024-02-04T07:18:20;11.20;99.90
8824;DHT22;4448;50.904;4.694;2024-02-04T07:20:47;11.20;99.90
8824;DHT22;4448;50.904;4.694;2024-02-04T07:23:13;11.20;99.90
8824;DHT22;4448;50.904;4.694;2024-02-04T07:25:39;11.20;99.90
8824;DHT22;4448;50.904;4.694;2024-02-04T07:28:05;11.20;99.90
8824;DHT22;4448;50.904;4.694;2024-02-04T07:30:31;11.20;99.90
8824;DHT22;4448;50.904;4.694;2024-02-04T07:32:57;11.20;99.90
8824;DHT22;4448;50.904;4.694;2024-02-04T07:35:23;11.20;99.90
8824;DHT22;4448;50.904;4.694;2024-02-04T07:37:49;11.20;99.90
8824;DHT22;4448;50.904;4.694;2024-02-04T07:40:15;11.20;99.90
8824;DHT22;4448;50.904;4.694;2024-02-04T07:42:41;11.20;99.90
8824;DHT22;4448;50.904;4.694;2024-02-04T07:45:07;11.20;99.90
8824;DHT22;4448;50.904;4.694;2024-02-04T07:47:35;11.20;99.90
8824;DHT22;4448;50.904;4.694;2024-02-04T07:50:01;11.20;99.90
8824;DHT22;4448;50.904;4.694;2024-02-04T07:52:26;11.20;99.90
8824;DHT22;4448;50.904;4.694;2024-02-04T07:54:52;11.30;99.90
8824;DHT22;4448;50.904;4.694;2024-02-04T07:57:18;11.30;99.90
8824;DHT22;4448;50.904;4.694;2024-02-04T07:59:44;11.20;99.90
8824;DHT22;4448;50.904;4.694;2024-02-04T08:02:10;11.30;99.90
8824;DHT22;4448;50.904;4.694;2024-02-04T08:04:36;11.30;99.90
8824;DHT22;4448;50.904;4.694;2024-02-04T08:07:02;11.30;99.90
8824;DHT22;4448;50.904;4.694;2024-02-04T08:09:28;11.30;99.90
8824;DHT22;4448;50.904;4.694;2024-02-04T08:11:53;11.30;99.90
8824;DHT22;4448;50.904;4.694;2024-02-04T08:14:19;11.30;99.90
8824;DHT22;4448;50.904;4.694;2024-02-04T08:16:45;11.30;99.90
8824;DHT22;4448;50.904;4.694;2024-02-04T08:19:12;11.30;99.90
8824;DHT22;4448;50.904;4.694;2024-02-04T08:21:39;11.30;99.90
8824;DHT22;4448;50.904;4.694;2024-02-04T08:24:05;11.30;99.90
8824;DHT22;4448;50.904;4.694;2024-02-04T08:26:31;11.30;99.90
8824;DHT22;4448;50.904;4.694;2024-02-04T08:28:57;11.30;99.90
8824;DHT22;4448;50.904;4.694;2024-02-04T08:31:22;11.30;99.90
8824;DHT22;4448;50.904;4.694;2024-02-04T08:33:48;11.30;99.90
8824;DHT22;4448;50.904;4.694;2024-02-04T08:36:14;11.30;99.90
8824;DHT22;4448;50.904;4.694;2024-02-04T08:38:41;11.30;99.90
8824;DHT22;4448;50.904;4.694;2024-02-04T08:41:07;11.30;99.90
8824;DHT22;4448;50.904;4.694;2024-02-04T08:43:32;11.30;99.90
8824;DHT22;4448;50.904;4.694;2024-02-04T08:45:58;11.30;99.90
8824;DHT22;4448;50.904;4.694;2024-02-04T08:48:24;11.40;99.90
8824;DHT22;4448;50.904;4.694;2024-02-04T08:50:50;11.40;99.90
8824;DHT22;4448;50.904;4.694;2024-02-04T08:53:16;11.40;99.90
8824;DHT22;4448;50.904;4.694;2024-02-04T08:55:41;11.40;99.90
8824;DHT22;4448;50.904;4.694;2024-02-04T08:58:07;11.40;99.90
8824;DHT22;4448;50.904;4.694;2024-02-04T09:00:33;11.40;99.90
8824;DHT22;4448;50.904;4.694;2024-02-04T09:02:59;11.40;99.90
8824;DHT22;4448;50.904;4.694;2024-02-04T09:05:25;11.40;99.90
8824;DHT22;4448;50.904;4.694;2024-02-04T09:07:51;11.40;99.90
8824;DHT22;4448;50.904;4.694;2024-02-04T09:10:17;11.50;99.90
8824;DHT22;4448;50.904;4.694;2024-02-04T09:12:43;11.40;99.90
8824;DHT22;4448;50.904;4.694;2024-02-04T09:15:09;11.50;99.90
8824;DHT22;4448;50.904;4.694;2024-02-04T09:17:34;11.50;99.90
8824;DHT22;4448;50.904;4.694;2024-02-04T09:20:01;11.50;99.90
8824;DHT22;4448;50.904;4.694;2024-02-04T09:22:27;11.60;99.90
8824;DHT22;4448;50.904;4.694;2024-02-04T09:24:53;11.60;99.90
8824;DHT22;4448;50.904;4.694;2024-02-04T09:27:19;11.60;99.90
8824;DHT22;4448;50.904;4.694;2024-02-04T09:29:45;11.60;99.90
8824;DHT22;4448;50.904;4.694;2024-02-04T09:32:11;11.70;99.90
8824;DHT22;4448;50.904;4.694;2024-02-04T09:34:37;11.60;99.90
8824;DHT22;4448;50.904;4.694;2024-02-04T09:37:03;11.60;99.90
8824;DHT22;4448;50.904;4.694;2024-02-04T09:39:28;11.70;99.90
8824;DHT22;4448;50.904;4.694;2024-02-04T09:41:55;11.70;99.90
8824;DHT22;4448;50.904;4.694;2024-02-04T09:44:23;11.60;99.90
8824;DHT22;4448;50.904;4.694;2024-02-04T09:46:49;11.60;99.90
8824;DHT22;4448;50.904;4.694;2024-02-04T09:49:15;11.60;99.90
8824;DHT22;4448;50.904;4.694;2024-02-04T09:51:41;11.60;99.90
8824;DHT22;4448;50.904;4.694;2024-02-04T09:54:10;11.60;99.90
8824;DHT22;4448;50.904;4.694;2024-02-04T09:56:38;11.60;99.90
8824;DHT22;4448;50.904;4.694;2024-02-04T09:59:05;11.60;99.90
8824;DHT22;4448;50.904;4.694;2024-02-04T10:01:35;11.60;99.90
8824;DHT22;4448;50.904;4.694;2024-02-04T10:04:01;11.60;99.90
8824;DHT22;4448;50.904;4.694;2024-02-04T10:06:27;11.60;99.90
8824;DHT22;4448;50.904;4.694;2024-02-04T10:08:53;11.60;99.90
8824;DHT22;4448;50.904;4.694;2024-02-04T10:11:19;11.60;99.90
8824;DHT22;4448;50.904;4.694;2024-02-04T10:13:48;11.60;99.90
8824;DHT22;4448;50.904;4.694;2024-02-04T10:16:16;11.60;99.90
8824;DHT22;4448;50.904;4.694;2024-02-04T10:18:46;11.60;99.90
8824;DHT22;4448;50.904;4.694;2024-02-04T10:21:21;11.60;99.90
8824;DHT22;4448;50.904;4.694;2024-02-04T10:23:47;11.60;99.90
8824;DHT22;4448;50.904;4.694;2024-02-04T10:26:13;11.60;99.90
8824;DHT22;4448;50.904;4.694;2024-02-04T10:28:39;11.70;99.90
8824;DHT22;4448;50.904;4.694;2024-02-04T10:31:08;11.60;99.90
8824;DHT22;4448;50.904;4.694;2024-02-04T10:33:35;11.60;99.90
8824;DHT22;4448;50.904;4.694;2024-02-04T10:36:01;11.70;99.90
8824;DHT22;4448;50.904;4.694;2024-02-04T10:38:27;11.70;99.90
8824;DHT22;4448;50.904;4.694;2024-02-04T10:40:54;11.70;99.90
8824;DHT22;4448;50.904;4.694;2024-02-04T10:43:23;11.70;99.90
8824;DHT22;4448;50.904;4.694;2024-02-04T10:45:52;11.80;99.90
8824;DHT22;4448;50.904;4.694;2024-02-04T10:48:25;11.70;99.90
8824;DHT22;4448;50.904;4.694;2024-02-04T10:50:55;11.80;99.90
8824;DHT22;4448;50.904;4.694;2024-02-04T10:53:25;11.80;99.90
8824;DHT22;4448;50.904;4.694;2024-02-04T10:55:54;11.80;99.90
8824;DHT22;4448;50.904;4.694;2024-02-04T10:58:25;11.80;99.90
8824;DHT22;4448;50.904;4.694;2024-02-04T11:00:51;11.80;99.90
8824;DHT22;4448;50.904;4.694;2024-02-04T11:03:18;11.80;99.90
8824;DHT22;4448;50.904;4.694;2024-02-04T11:05:44;11.80;99.90
8824;DHT22;4448;50.904;4.694;2024-02-04T11:08:12;11.80;99.90
8824;DHT22;4448;50.904;4.694;2024-02-04T11:10:39;11.80;99.90
8824;DHT22;4448;50.904;4.694;2024-02-04T11:13:07;11.90;99.90
8824;DHT22;4448;50.904;4.694;2024-02-04T11:15:37;11.80;99.90
8824;DHT22;4448;50.904;4.694;2024-02-04T11:18:18;11.90;99.90
8824;DHT22;4448;50.904;4.694;2024-02-04T11:21:23;11.90;99.90
8824;DHT22;4448;50.904;4.694;2024-02-04T11:24:22;11.90;99.90
8824;DHT22;4448;50.904;4.694;2024-02-04T11:26:52;11.90;99.90
8824;DHT22;4448;50.904;4.694;2024-02-04T11:29:18;11.90;99.90
8824;DHT22;4448;50.904;4.694;2024-02-04T11:31:44;11.90;99.90
8824;DHT22;4448;50.904;4.694;2024-02-04T11:34:10;11.90;99.90
8824;DHT22;4448;50.904;4.694;2024-02-04T11:36:39;11.90;99.90
8824;DHT22;4448;50.904;4.694;2024-02-04T11:39:13;11.90;99.90
8824;DHT22;4448;50.904;4.694;2024-02-04T11:41:45;11.90;99.90
8824;DHT22;4448;50.904;4.694;2024-02-04T11:44:25;11.90;99.90
8824;DHT22;4448;50.904;4.694;2024-02-04T11:46:52;11.90;99.90
8824;DHT22;4448;50.904;4.694;2024-02-04T11:49:19;11.90;99.90
8824;DHT22;4448;50.904;4.694;2024-02-04T11:51:51;11.90;99.90
8824;DHT22;4448;50.904;4.694;2024-02-04T11:54:17;11.90;99.90
8824;DHT22;4448;50.904;4.694;2024-02-04T11:56:51;11.90;99.90
8824;DHT22;4448;50.904;4.694;2024-02-04T11:59:21;11.90;99.90
8824;DHT22;4448;50.904;4.694;2024-02-04T12:01:48;11.90;99.90
8824;DHT22;4448;50.904;4.694;2024-02-04T12:04:15;11.90;99.90
8824;DHT22;4448;50.904;4.694;2024-02-04T12:06:42;11.90;99.90
8824;DHT22;4448;50.904;4.694;2024-02-04T12:09:09;12.00;99.90
8824;DHT22;4448;50.904;4.694;2024-02-04T12:11:38;11.90;99.90
8824;DHT22;4448;50.904;4.694;2024-02-04T12:14:05;12.00;99.90
8824;DHT22;4448;50.904;4.694;2024-02-04T12:16:33;12.00;99.90
8824;DHT22;4448;50.904;4.694;2024-02-04T12:19:05;12.00;99.90
8824;DHT22;4448;50.904;4.694;2024-02-04T12:21:32;12.00;99.90
8824;DHT22;4448;50.904;4.694;2024-02-04T12:24:01;12.00;99.90
8824;DHT22;4448;50.904;4.694;2024-02-04T12:26:27;12.00;99.90
8824;DHT22;4448;50.904;4.694;2024-02-04T12:28:53;12.10;99.90
8824;DHT22;4448;50.904;4.694;2024-02-04T12:31:26;12.00;99.90
8824;DHT22;4448;50.904;4.694;2024-02-04T12:33:58;12.10;99.90
8824;DHT22;4448;50.904;4.694;2024-02-04T12:36:28;12.00;99.90
8824;DHT22;4448;50.904;4.694;2024-02-04T12:38:58;12.00;99.90
8824;DHT22;4448;50.904;4.694;2024-02-04T12:41:26;12.00;99.90
8824;DHT22;4448;50.904;4.694;2024-02-04T12:43:57;12.00;99.90
8824;DHT22;4448;50.904;4.694;2024-02-04T12:46:27;12.00;99.90
8824;DHT22;4448;50.904;4.694;2024-02-04T12:48:58;12.00;99.90
8824;DHT22;4448;50.904;4.694;2024-02-04T12:51:28;12.00;99.90
8824;DHT22;4448;50.904;4.694;2024-02-04T12:54:06;12.00;99.90
8824;DHT22;4448;50.904;4.694;2024-02-04T12:56:52;12.00;99.90
8824;DHT22;4448;50.904;4.694;2024-02-04T12:59:33;12.00;99.90
8824;DHT22;4448;50.904;4.694;2024-02-04T13:02:07;12.00;99.90
8824;DHT22;4448;50.904;4.694;2024-02-04T13:04:37;12.00;99.90
8824;DHT22;4448;50.904;4.694;2024-02-04T13:07:08;12.00;99.90
8824;DHT22;4448;50.904;4.694;2024-02-04T13:09:38;12.10;99.90
8824;DHT22;4448;50.904;4.694;2024-02-04T13:12:05;12.00;99.90
8824;DHT22;4448;50.904;4.694;2024-02-04T13:14:31;12.10;99.90
8824;DHT22;4448;50.904;4.694;2024-02-04T13:16:57;12.10;99.90
8824;DHT22;4448;50.904;4.694;2024-02-04T13:19:23;12.10;99.90
8824;DHT22;4448;50.904;4.694;2024-02-04T13:21:49;12.10;99.90
8824;DHT22;4448;50.904;4.694;2024-02-04T13:24:15;12.20;99.90
8824;DHT22;4448;50.904;4.694;2024-02-04T13:26:41;12.20;99.90
8824;DHT22;4448;50.904;4.694;2024-02-04T13:29:07;12.20;99.90
8824;DHT22;4448;50.904;4.694;2024-02-04T13:31:33;12.20;99.90
8824;DHT22;4448;50.904;4.694;2024-02-04T13:33:59;12.30;99.90
8824;DHT22;4448;50.904;4.694;2024-02-04T13:36:29;12.30;99.90
8824;DHT22;4448;50.904;4.694;2024-02-04T13:38:55;12.30;99.90
8824;DHT22;4448;50.904;4.694;2024-02-04T13:41:21;12.30;99.90
8824;DHT22;4448;50.904;4.694;2024-02-04T13:43:47;12.30;99.90
8824;DHT22;4448;50.904;4.694;2024-02-04T13:46:13;12.30;99.90
8824;DHT22;4448;50.904;4.694;2024-02-04T13:48:40;12.30;99.90
8824;DHT22;4448;50.904;4.694;2024-02-04T13:51:06;12.30;99.90
8824;DHT22;4448;50.904;4.694;2024-02-04T13:53:31;12.40;99.90
8824;DHT22;4448;50.904;4.694;2024-02-04T13:56:00;12.40;99.90
8824;DHT22;4448;50.904;4.694;2024-02-04T13:58:25;12.40;99.90
8824;DHT22;4448;50.904;4.694;2024-02-04T14:00:52;12.40;99.90
8824;DHT22;4448;50.904;4.694;2024-02-04T14:03:18;12.40;99.90
8824;DHT22;4448;50.904;4.694;2024-02-04T14:05:45;12.40;99.90
8824;DHT22;4448;50.904;4.694;2024-02-04T14:08:10;12.50;99.90
8824;DHT22;4448;50.904;4.694;2024-02-04T14:10:36;12.50;99.90
8824;DHT22;4448;50.904;4.694;2024-02-04T14:13:02;12.50;99.90
8824;DHT22;4448;50.904;4.694;2024-02-04T14:15:29;12.50;99.90
8824;DHT22;4448;50.904;4.694;2024-02-04T14:17:55;12.50;99.90
8824;DHT22;4448;50.904;4.694;2024-02-04T14:20:23;12.50;99.90
8824;DHT22;4448;50.904;4.694;2024-02-04T14:22:49;12.40;99.90
8824;DHT22;4448;50.904;4.694;2024-02-04T14:25:16;12.40;99.90
8824;DHT22;4448;50.904;4.694;2024-02-04T14:27:42;12.40;99.90
8824;DHT22;4448;50.904;4.694;2024-02-04T14:30:08;12.30;99.90
8824;DHT22;4448;50.904;4.694;2024-02-04T14:32:34;12.30;99.90
8824;DHT22;4448;50.904;4.694;2024-02-04T14:35:00;12.30;99.90
8824;DHT22;4448;50.904;4.694;2024-02-04T14:37:26;12.20;99.90
8824;DHT22;4448;50.904;4.694;2024-02-04T14:39:53;12.20;99.90
8824;DHT22;4448;50.904;4.694;2024-02-04T14:42:19;12.20;99.90
8824;DHT22;4448;50.904;4.694;2024-02-04T14:44:45;12.10;99.90
8824;DHT22;4448;50.904;4.694;2024-02-04T14:47:10;12.20;99.90
8824;DHT22;4448;50.904;4.694;2024-02-04T14:49:36;12.10;99.90
8824;DHT22;4448;50.904;4.694;2024-02-04T14:52:03;12.10;99.90
8824;DHT22;4448;50.904;4.694;2024-02-04T14:54:29;12.10;99.90
8824;DHT22;4448;50.904;4.694;2024-02-04T14:56:55;12.10;99.90
8824;DHT22;4448;50.904;4.694;2024-02-04T14:59:20;12.10;99.90
8824;DHT22;4448;50.904;4.694;2024-02-04T15:01:47;12.00;99.90
8824;DHT22;4448;50.904;4.694;2024-02-04T15:04:13;12.00;99.90
8824;DHT22;4448;50.904;4.694;2024-02-04T15:06:40;12.00;99.90
8824;DHT22;4448;50.904;4.694;2024-02-04T15:09:06;12.00;99.90
8824;DHT22;4448;50.904;4.694;2024-02-04T15:11:32;12.00;99.90
8824;DHT22;4448;50.904;4.694;2024-02-04T15:13:59;12.00;99.90
8824;DHT22;4448;50.904;4.694;2024-02-04T15:16:25;12.00;99.90
8824;DHT22;4448;50.904;4.694;2024-02-04T15:18:51;12.00;99.90
8824;DHT22;4448;50.904;4.694;2024-02-04T15:21:18;12.00;99.90
8824;DHT22;4448;50.904;4.694;2024-02-04T15:23:44;12.00;99.90
8824;DHT22;4448;50.904;4.694;2024-02-04T15:26:12;12.00;99.90
8824;DHT22;4448;50.904;4.694;2024-02-04T15:28:41;12.00;99.90
8824;DHT22;4448;50.904;4.694;2024-02-04T15:31:07;12.00;99.90
8824;DHT22;4448;50.904;4.694;2024-02-04T15:33:34;12.00;99.90
8824;DHT22;4448;50.904;4.694;2024-02-04T15:36:00;12.00;99.90
8824;DHT22;4448;50.904;4.694;2024-02-04T15:38:26;12.00;99.90
8824;DHT22;4448;50.904;4.694;2024-02-04T15:40:54;11.90;99.90
8824;DHT22;4448;50.904;4.694;2024-02-04T15:43:19;12.00;99.90
8824;DHT22;4448;50.904;4.694;2024-02-04T15:45:46;11.90;99.90
8824;DHT22;4448;50.904;4.694;2024-02-04T15:48:16;12.00;99.90
8824;DHT22;4448;50.904;4.694;2024-02-04T15:50:43;11.90;99.90
8824;DHT22;4448;50.904;4.694;2024-02-04T15:53:09;11.90;99.90
8824;DHT22;4448;50.904;4.694;2024-02-04T15:55:35;11.90;99.90
8824;DHT22;4448;50.904;4.694;2024-02-04T15:58:03;11.90;99.90
8824;DHT22;4448;50.904;4.694;2024-02-04T16:00:30;11.90;99.90
8824;DHT22;4448;50.904;4.694;2024-02-04T16:02:57;11.90;99.90
8824;DHT22;4448;50.904;4.694;2024-02-04T16:05:23;11.90;99.90
8824;DHT22;4448;50.904;4.694;2024-02-04T16:07:50;11.90;99.90
8824;DHT22;4448;50.904;4.694;2024-02-04T16:10:17;11.90;99.90